createdAt,value
2018-08-22T00:01:28.489Z,19.60
2018-08-22T00:03:57.859Z,19.60
2018-08-22T00:06:26.538Z,19.40
2018-08-22T00:08:55.010Z,19.40
2018-08-22T00:11:24.875Z,19.50
2018-08-22T00:13:53.223Z,19.40
2018-08-22T00:16:23.652Z,19.30
2018-08-22T00:18:51.682Z,19.30
2018-08-22T00:21:19.776Z,19.40
2018-08-22T00:23:48.142Z,19.40
2018-08-22T00:26:16.751Z,19.50
2018-08-22T00:28:44.724Z,19.50
2018-08-22T00:31:14.339Z,19.50
2018-08-22T00:33:42.759Z,19.40
2018-08-22T00:36:10.750Z,19.40
2018-08-22T00:38:39.055Z,19.30
2018-08-22T00:41:07.919Z,19.30
2018-08-22T00:47:06.915Z,19.30
2018-08-22T00:49:36.271Z,19.30
2018-08-22T00:52:04.798Z,19.30
2018-08-22T00:54:33.914Z,19.30
2018-08-22T00:57:02.033Z,19.30
2018-08-22T00:59:31.365Z,19.20
2018-08-22T01:01:59.940Z,19.10
2018-08-22T01:04:28.429Z,19.00
2018-08-22T01:06:56.965Z,19.00
2018-08-22T01:09:25.067Z,19.00
2018-08-22T01:11:53.344Z,19.00
2018-08-22T01:14:22.312Z,19.10
2018-08-22T01:16:51.797Z,19.00
2018-08-22T01:19:21.134Z,18.90
2018-08-22T01:21:50.031Z,18.80
2018-08-22T01:24:20.947Z,18.70
2018-08-22T01:26:50.101Z,18.70
2018-08-22T01:32:19.620Z,18.70
2018-08-22T01:34:48.100Z,18.70
2018-08-22T01:37:16.579Z,18.60
2018-08-22T01:39:59.608Z,18.40
2018-08-22T01:42:27.667Z,18.40
2018-08-22T01:44:55.719Z,18.40
2018-08-22T01:47:23.744Z,18.30
2018-08-22T01:49:52.526Z,18.30
2018-08-22T01:52:22.007Z,18.40
2018-08-22T01:54:51.067Z,18.20
2018-08-22T01:57:20.200Z,18.20
2018-08-22T01:59:48.395Z,18.00
2018-08-22T02:02:16.488Z,18.00
2018-08-22T02:04:44.889Z,17.90
2018-08-22T02:07:12.996Z,17.90
2018-08-22T02:09:41.383Z,17.90
2018-08-22T02:12:09.375Z,17.90
2018-08-22T02:14:37.603Z,17.80
2018-08-22T02:17:06.559Z,17.90
2018-08-22T02:19:35.297Z,17.80
2018-08-22T02:22:04.490Z,17.90
2018-08-22T02:24:33.163Z,17.90
2018-08-22T02:27:01.229Z,17.80
2018-08-22T02:29:30.592Z,17.70
2018-08-22T02:31:59.420Z,17.60
2018-08-22T02:34:28.759Z,17.60
2018-08-22T02:36:57.937Z,17.70
2018-08-22T02:39:25.964Z,17.70
2018-08-22T02:41:54.524Z,17.70
2018-08-22T02:44:23.239Z,17.60
2018-08-22T02:46:53.157Z,17.60
2018-08-22T02:49:21.389Z,17.60
2018-08-22T02:51:50.213Z,17.50
2018-08-22T02:54:19.660Z,17.30
2018-08-22T02:56:48.835Z,17.10
2018-08-22T02:59:17.335Z,17.10
2018-08-22T03:01:45.419Z,17.10
2018-08-22T03:04:14.690Z,17.20
2018-08-22T03:06:43.109Z,17.20
2018-08-22T03:09:13.090Z,17.20
2018-08-22T03:11:41.863Z,17.20
2018-08-22T03:14:10.282Z,17.20
2018-08-22T03:16:38.355Z,17.20
2018-08-22T03:19:06.440Z,17.20
2018-08-22T03:21:34.491Z,17.20
2018-08-22T03:24:02.590Z,17.10
2018-08-22T03:26:30.635Z,17.10
2018-08-22T03:28:58.660Z,17.00
2018-08-22T03:31:26.794Z,17.00
2018-08-22T03:33:55.028Z,17.00
2018-08-22T03:36:23.033Z,16.80
2018-08-22T03:38:51.703Z,16.90
2018-08-22T03:41:19.890Z,16.70
2018-08-22T03:43:48.158Z,16.80
2018-08-22T03:46:17.206Z,16.80
2018-08-22T03:48:45.266Z,16.70
2018-08-22T03:51:13.398Z,16.70
2018-08-22T03:53:41.476Z,16.60
2018-08-22T03:56:10.688Z,16.60
2018-08-22T03:58:38.734Z,16.60
2018-08-22T04:01:06.751Z,16.60
2018-08-22T04:03:34.784Z,16.60
2018-08-22T04:06:02.868Z,16.50
2018-08-22T04:08:30.937Z,16.40
2018-08-22T04:10:59.078Z,16.40
2018-08-22T04:13:27.585Z,16.40
2018-08-22T04:15:55.790Z,16.30
2018-08-22T04:18:23.939Z,16.40
2018-08-22T04:20:52.198Z,16.40
2018-08-22T04:23:21.340Z,16.30
2018-08-22T04:25:49.429Z,16.30
2018-08-22T04:28:18.345Z,16.40
2018-08-22T04:30:46.621Z,16.40
2018-08-22T04:33:15.564Z,16.40
2018-08-22T04:35:43.568Z,16.40
2018-08-22T04:38:12.452Z,16.50
2018-08-22T04:40:40.487Z,16.40
2018-08-22T04:43:08.432Z,16.40
2018-08-22T04:45:36.665Z,16.30
2018-08-22T04:48:04.708Z,16.30
2018-08-22T04:50:32.904Z,16.20
2018-08-22T04:53:05.637Z,16.30
2018-08-22T04:55:34.300Z,16.40
2018-08-22T04:58:02.440Z,16.50
2018-08-22T05:00:30.437Z,16.40
2018-08-22T05:02:58.744Z,16.40
2018-08-22T05:05:26.860Z,16.30
2018-08-22T05:07:54.989Z,16.20
2018-08-22T05:10:23.024Z,16.10
2018-08-22T05:12:51.005Z,16.10
2018-08-22T05:15:19.064Z,16.20
2018-08-22T05:17:47.058Z,16.20
2018-08-22T05:20:15.147Z,16.10
2018-08-22T05:22:43.393Z,16.10
2018-08-22T05:25:11.505Z,16.10
2018-08-22T05:27:39.600Z,16.20
2018-08-22T05:30:09.654Z,16.30
2018-08-22T05:32:37.603Z,16.20
2018-08-22T05:35:05.753Z,16.30
2018-08-22T05:37:33.855Z,16.40
2018-08-22T05:40:01.958Z,16.60
2018-08-22T05:42:30.857Z,16.60
2018-08-22T05:44:59.120Z,16.70
2018-08-22T05:47:27.125Z,16.80
2018-08-22T05:49:55.156Z,16.90
2018-08-22T05:52:23.509Z,16.90
2018-08-22T05:54:52.677Z,17.00
2018-08-22T05:57:20.887Z,17.00
2018-08-22T05:59:49.118Z,17.00
2018-08-22T06:02:17.234Z,17.00
2018-08-22T06:04:48.284Z,17.00
2018-08-22T06:07:16.558Z,17.00
2018-08-22T06:09:44.857Z,17.10
2018-08-22T06:12:13.858Z,17.20
2018-08-22T06:14:42.103Z,17.20
2018-08-22T06:17:11.605Z,17.30
2018-08-22T06:19:40.932Z,17.40
2018-08-22T06:22:16.747Z,17.40
2018-08-22T06:24:45.056Z,17.50
2018-08-22T06:27:14.455Z,17.70
2018-08-22T06:29:43.476Z,17.70
2018-08-22T06:32:11.568Z,17.90
2018-08-22T06:34:39.753Z,18.00
2018-08-22T06:37:08.024Z,18.00
2018-08-22T06:39:36.143Z,18.10
2018-08-22T06:42:04.274Z,18.10
2018-08-22T06:44:32.460Z,18.30
2018-08-22T06:47:00.528Z,18.20
2018-08-22T06:49:28.860Z,18.30
2018-08-22T06:51:56.940Z,18.50
2018-08-22T06:54:26.544Z,18.50
2018-08-22T06:56:57.161Z,18.80
2018-08-22T06:59:25.433Z,18.80
2018-08-22T07:08:13.104Z,19.40
2018-08-22T07:10:43.314Z,21.10
2018-08-22T07:17:53.629Z,23.00
2018-08-22T07:20:40.221Z,24.40
2018-08-22T07:23:12.840Z,25.20
2018-08-22T07:25:51.379Z,25.60
2018-08-22T07:28:34.302Z,25.60
2018-08-22T07:31:07.228Z,26.80
2018-08-22T07:33:41.864Z,27.10
2018-08-22T07:36:14.871Z,25.70
2018-08-22T07:39:03.163Z,26.40
2018-08-22T07:46:13.409Z,27.40
2018-08-22T07:53:48.315Z,27.60
2018-08-22T07:56:19.199Z,27.60
2018-08-22T07:59:11.264Z,28.50
2018-08-22T08:01:54.622Z,28.00
2018-08-22T08:04:54.794Z,28.90
2018-08-22T08:07:26.399Z,29.30
2018-08-22T08:13:04.925Z,28.70
2018-08-22T08:15:39.251Z,30.40
2018-08-22T08:18:13.713Z,30.50
2018-08-22T08:20:57.519Z,30.90
2018-08-22T08:23:36.936Z,29.80
2018-08-22T08:33:59.462Z,31.00
2018-08-22T08:37:13.038Z,30.40
2018-08-22T08:39:41.636Z,26.90
2018-08-22T08:45:40.931Z,29.20
2018-08-22T08:54:21.412Z,29.70
2018-08-22T09:00:52.451Z,31.60
2018-08-22T09:08:17.429Z,31.50
2018-08-22T09:14:15.757Z,31.50
2018-08-22T09:18:24.455Z,32.30
2018-08-22T09:29:13.157Z,31.90
2018-08-22T09:31:51.869Z,33.20
2018-08-22T09:34:23.761Z,32.30
2018-08-22T09:37:02.924Z,32.90
2018-08-22T09:39:59.175Z,33.40
2018-08-22T09:58:24.086Z,29.80
2018-08-22T10:01:07.762Z,28.10
2018-08-22T10:07:59.161Z,28.10
2018-08-22T10:10:44.291Z,28.00
2018-08-22T10:13:16.880Z,27.80
2018-08-22T10:17:53.104Z,27.50
2018-08-22T10:20:52.143Z,27.90
2018-08-22T10:27:19.704Z,28.00
2018-08-22T10:29:52.716Z,27.90
2018-08-22T10:33:46.281Z,28.30
2018-08-22T10:36:23.035Z,28.60
2018-08-22T10:39:12.121Z,28.60
2018-08-22T10:41:48.139Z,28.60
2018-08-22T11:00:21.160Z,28.50
2018-08-22T11:03:37.420Z,28.50
2018-08-22T11:20:30.017Z,29.00
2018-08-22T11:26:47.143Z,29.20
2018-08-22T11:33:29.881Z,30.00
2018-08-22T11:59:38.420Z,29.90
2018-08-22T12:03:21.792Z,29.50
2018-08-22T13:15:18.809Z,29.80
2018-08-22T13:18:18.991Z,29.80
2018-08-22T13:21:09.339Z,29.80
2018-08-22T13:23:53.728Z,30.10
2018-08-22T13:26:48.281Z,30.40
2018-08-22T13:29:33.831Z,30.50
2018-08-22T13:32:03.131Z,30.60
2018-08-22T13:34:43.045Z,30.50
2018-08-22T13:37:29.409Z,30.50
2018-08-22T13:40:02.351Z,30.60
2018-08-22T13:42:37.623Z,30.70
2018-08-22T13:45:11.086Z,30.50
2018-08-22T13:47:47.509Z,30.40
2018-08-22T13:50:41.821Z,30.30
2018-08-22T13:53:12.713Z,30.60
2018-08-22T13:55:56.798Z,31.20
2018-08-22T13:58:26.690Z,31.00
2018-08-22T14:01:15.305Z,30.90
2018-08-22T14:03:44.020Z,31.10
2018-08-22T14:06:49.946Z,31.00
2018-08-22T14:10:23.367Z,30.80
2018-08-22T14:13:09.613Z,30.60
2018-08-22T14:15:40.833Z,30.50
2018-08-22T14:18:21.227Z,30.80
2018-08-22T14:21:07.161Z,31.00
2018-08-22T14:23:37.746Z,31.30
2018-08-22T14:26:26.425Z,31.30
2018-08-22T14:29:10.222Z,31.10
2018-08-22T14:31:40.872Z,31.40
2018-08-22T14:34:29.389Z,31.50
2018-08-22T14:37:27.171Z,31.40
2018-08-22T14:40:20.243Z,30.90
2018-08-22T14:42:52.964Z,30.90
2018-08-22T14:45:26.994Z,31.50
2018-08-22T14:48:07.468Z,31.50
2018-08-22T14:50:56.496Z,31.60
2018-08-22T14:53:48.560Z,31.30
2018-08-22T14:56:49.107Z,31.30
2018-08-22T14:59:19.584Z,30.90
2018-08-22T15:02:08.090Z,30.80
2018-08-22T15:04:37.531Z,30.80
2018-08-22T15:07:10.831Z,30.90
2018-08-22T15:09:39.587Z,31.00
2018-08-22T15:13:01.173Z,31.20
2018-08-22T15:24:25.747Z,31.90
2018-08-22T15:26:59.701Z,31.90
2018-08-22T15:29:40.333Z,31.60
2018-08-22T15:32:15.095Z,31.50
2018-08-22T15:34:55.661Z,31.50
2018-08-22T15:37:25.662Z,31.20
2018-08-22T15:39:54.543Z,31.20
2018-08-22T15:42:32.994Z,31.40
2018-08-22T15:45:35.696Z,31.30
2018-08-22T15:48:07.939Z,31.20
2018-08-22T15:50:46.925Z,31.20
2018-08-22T15:53:27.133Z,31.10
2018-08-22T15:55:57.600Z,31.00
2018-08-22T15:58:31.569Z,31.00
2018-08-22T16:01:00.241Z,31.00
2018-08-22T16:03:29.054Z,31.00
2018-08-22T16:06:14.344Z,30.80
2018-08-22T16:08:59.581Z,30.80
2018-08-22T16:11:31.769Z,30.80
2018-08-22T16:14:03.591Z,30.60
2018-08-22T16:16:32.114Z,30.50
2018-08-22T16:19:02.890Z,30.40
2018-08-22T16:21:42.209Z,30.30
2018-08-22T16:24:12.430Z,30.10
2018-08-22T16:26:42.948Z,30.10
2018-08-22T16:29:29.410Z,30.00
2018-08-22T16:32:20.973Z,30.00
2018-08-22T16:35:21.311Z,30.10
2018-08-22T16:38:02.205Z,30.10
2018-08-22T16:40:43.099Z,30.10
2018-08-22T16:43:13.725Z,30.10
2018-08-22T16:45:49.795Z,30.10
2018-08-22T16:48:19.735Z,30.00
2018-08-22T16:54:01.380Z,29.80
2018-08-22T16:57:02.391Z,29.80
2018-08-22T16:59:32.489Z,29.70
2018-08-22T17:02:00.982Z,29.60
2018-08-22T17:04:36.357Z,29.50
2018-08-22T17:07:15.384Z,29.40
2018-08-22T17:09:51.938Z,29.40
2018-08-22T17:13:14.035Z,29.30
2018-08-22T17:16:05.115Z,29.30
2018-08-22T17:18:39.377Z,29.20
2018-08-22T17:21:07.947Z,29.20
2018-08-22T17:23:41.070Z,29.10
2018-08-22T17:26:12.418Z,29.10
2018-08-22T17:29:14.024Z,29.10
2018-08-22T17:32:30.611Z,29.00
2018-08-22T17:35:14.893Z,29.00
2018-08-22T17:38:09.987Z,28.80
2018-08-22T17:40:39.526Z,28.70
2018-08-22T17:43:21.090Z,28.60
2018-08-22T17:45:53.347Z,28.50
2018-08-22T17:48:25.523Z,28.40
2018-08-22T17:50:54.366Z,28.40
2018-08-22T17:53:22.596Z,28.30
2018-08-22T17:55:55.636Z,28.30
2018-08-22T17:58:39.231Z,28.20
2018-08-22T18:01:11.312Z,28.10
2018-08-22T18:03:42.921Z,28.10
2018-08-22T18:06:14.442Z,28.00
2018-08-22T18:09:01.620Z,27.90
2018-08-22T18:11:49.079Z,27.80
2018-08-22T18:14:20.889Z,27.80
2018-08-22T18:16:57.685Z,27.70
2018-08-22T18:19:27.260Z,27.60
2018-08-22T18:22:01.767Z,27.50
2018-08-22T18:24:33.429Z,27.40
2018-08-22T18:27:05.561Z,27.30
2018-08-22T18:29:35.570Z,27.20
2018-08-22T18:32:05.589Z,27.10
2018-08-22T18:34:52.508Z,27.00
2018-08-22T18:37:22.062Z,26.90
2018-08-22T18:40:01.703Z,26.80
2018-08-22T18:42:32.385Z,26.70
2018-08-22T18:45:14.688Z,26.60
2018-08-22T18:47:58.799Z,26.50
2018-08-22T18:51:15.619Z,26.40
2018-08-22T18:54:10.013Z,26.40
2018-08-22T18:56:42.614Z,26.30
2018-08-22T18:59:23.356Z,26.20
2018-08-22T19:01:53.431Z,26.10
2018-08-22T19:04:28.126Z,26.00
2018-08-22T19:07:02.054Z,26.00
2018-08-22T19:09:43.715Z,25.90
2018-08-22T19:12:28.722Z,25.90
2018-08-22T19:15:13.993Z,25.80
2018-08-22T19:17:51.005Z,25.80
2018-08-22T19:20:28.595Z,25.70
2018-08-22T19:23:24.164Z,25.60
2018-08-22T19:27:46.471Z,25.50
2018-08-22T19:36:40.239Z,25.20
2018-08-22T19:39:08.452Z,25.10
2018-08-22T19:41:53.252Z,25.00
2018-08-22T19:44:26.258Z,24.90
2018-08-22T19:46:57.542Z,24.90
2018-08-22T19:49:54.427Z,24.80
2018-08-22T19:52:33.075Z,24.70
2018-08-22T19:55:29.138Z,24.60
2018-08-22T19:59:05.385Z,24.50
2018-08-22T20:04:39.166Z,24.30
2018-08-22T20:07:18.019Z,24.30
2018-08-22T20:13:52.040Z,24.20
2018-08-22T20:16:21.623Z,24.10
2018-08-22T20:19:01.662Z,24.00
2018-08-22T20:21:39.097Z,23.90
2018-08-22T20:24:11.491Z,23.90
2018-08-22T20:26:50.501Z,23.80
2018-08-22T20:29:45.835Z,23.70
2018-08-22T20:32:29.517Z,23.60
2018-08-22T20:35:14.241Z,23.50
2018-08-22T20:37:51.016Z,23.40
2018-08-22T20:40:29.129Z,23.40
2018-08-22T20:43:11.524Z,23.30
2018-08-22T20:45:55.589Z,23.20
2018-08-22T20:48:28.361Z,23.10
2018-08-22T20:51:18.646Z,23.10
2018-08-22T20:53:53.635Z,23.00
2018-08-22T20:59:26.091Z,22.90
2018-08-22T21:02:23.476Z,22.90
2018-08-22T21:04:53.902Z,22.80
2018-08-22T21:07:41.848Z,22.70
2018-08-22T21:10:30.555Z,22.70
2018-08-22T21:13:09.443Z,22.60
2018-08-22T21:16:13.090Z,22.60
2018-08-22T21:18:54.392Z,22.50
2018-08-22T21:21:40.565Z,22.50
2018-08-22T21:27:30.956Z,22.40
2018-08-22T21:32:58.124Z,22.20
2018-08-22T21:35:35.356Z,22.20
2018-08-22T21:38:14.394Z,22.20
2018-08-22T21:40:51.365Z,22.10
2018-08-22T21:43:26.705Z,22.10
2018-08-22T21:46:01.243Z,22.10
2018-08-22T21:48:34.545Z,22.10
2018-08-22T21:51:04.736Z,22.00
2018-08-22T21:53:42.271Z,22.00
2018-08-22T21:56:18.390Z,22.00
2018-08-22T21:58:58.213Z,21.90
2018-08-22T22:01:36.824Z,21.90
2018-08-22T22:04:23.221Z,21.80
2018-08-22T22:06:54.814Z,21.80
2018-08-22T22:09:29.892Z,21.70
2018-08-22T22:12:04.690Z,21.60
2018-08-22T22:14:47.694Z,21.50
2018-08-22T22:17:24.086Z,21.50
2018-08-22T22:20:02.025Z,21.40
2018-08-22T22:22:48.075Z,21.40
2018-08-22T22:25:23.932Z,21.30
2018-08-22T22:27:58.007Z,21.20
2018-08-22T22:30:29.415Z,21.20
2018-08-22T22:32:59.760Z,21.20
2018-08-22T22:35:34.449Z,21.20
2018-08-22T22:38:10.162Z,21.10
2018-08-22T22:40:41.250Z,21.10
2018-08-22T22:43:14.191Z,21.10
2018-08-22T22:45:54.036Z,20.90
2018-08-22T22:51:11.705Z,21.00
2018-08-22T22:53:51.545Z,21.00
2018-08-22T22:56:22.640Z,20.90
2018-08-22T22:58:58.612Z,20.80
2018-08-22T23:01:30.581Z,20.70
2018-08-22T23:04:00.627Z,20.70
2018-08-22T23:06:37.171Z,20.70
2018-08-22T23:09:08.478Z,20.70
2018-08-22T23:11:45.634Z,20.70
2018-08-22T23:14:21.419Z,20.60
2018-08-22T23:16:51.181Z,20.50
2018-08-22T23:19:23.240Z,20.50
2018-08-22T23:21:56.444Z,20.40
2018-08-22T23:24:30.585Z,20.40
2018-08-22T23:27:08.178Z,20.40
2018-08-22T23:30:03.849Z,20.40
2018-08-22T23:32:48.527Z,20.30
2018-08-22T23:35:33.636Z,20.30
2018-08-22T23:38:30.211Z,20.30
2018-08-22T23:41:15.546Z,20.30
2018-08-22T23:43:52.253Z,20.20
2018-08-22T23:46:37.450Z,20.30
2018-08-22T23:49:06.362Z,20.20
2018-08-22T23:51:39.319Z,20.10
2018-08-22T23:54:10.166Z,20.10
2018-08-22T23:56:48.292Z,20.10
2018-08-22T23:59:17.647Z,20.00
